MMZH/ZIH METAR and TAF weather

Enter ICAO airport designator
Station Type Date Time Source
MMZH METAR 2020/08/15 16:40 UTC NOAA

MMZH 151640Z 21010KT 7SM SCT250 32/25 A2979 RMK 8/001 HZY


Station Type Date Time Source
MMZH Decoded METAR 2020/08/15 16:40 UTC NOAA

Ixtapa-Zihuatanejo, Mexico (MMZH) 17-36N 101-28W
Aug 15, 2020 - 12:40 PM EDT / 2020.08.15 1640 UTC
Wind: from the SSW (210 degrees) at 12 MPH (10 KT):0
Visibility: 7 mile(s):0
Sky conditions: partly cloudy
Temperature: 89 F (32 C)
Heat index: 100.6 F (38.1 C):1
Dew Point: 77 F (25 C)
Relative Humidity: 66%
Pressure (altimeter): 29.79 in. Hg (1008 hPa)
ob: MMZH 151640Z 21010KT 7SM SCT250 32/25 A2979 RMK 8/001 HZY
cycle: 16

Station Type Date Time Source
MMZH TAF 2020/08/15 18:37 UTC NOAA

TAF MMZH 151635Z 1518/1618 21010KT P6SM SCT250
BECMG 1520/1521 SCT020
FM160300 32005KT P6SM SCT250
BECMG 1617/1618 21008KT SKC

Example: see airport list